Рощино

Карта отелей и гостиниц, располагающихся рядом с аэропортом Рощино :

Рощино
Тюмень
Тюменская область 57° 10' 37.02" N, 65° 19' 23.9988" E
Код аэродрома ИКАО
USTR
Код аэродрома RU
УСТР
Координаты
N57.17695° E065.32333°
Превышение над уровнем моря
116
Основная полоса
03/21
Курс магнитный
033/213
Длина основной ВПП
3010
Ширина основной ВПП
45
Покрытие основной ВПП
Твёрдое (асфальтобетон)
Освещение ВПП
Постоянное
Тип: 
Аэродром
Класс аэродрома: 
Международный
Принадлежность: 
ГА
Статус: 
Действующий
Сайт: 
http://www.tjm.aero/
Страна: 
Россия
Регион: 
Тюменская область
Город: 
Тюмень
Погода: 

Авиационная погода в Рощино

Регион: 
Погода METAR: 
USTR 281100Z 20005MPS CAVOK M02/M11 Q1024 R21/420160 R30/450160 NOSIG
Время наблюдения
2021-11-28T11:00:00Z
Температура C
-2.0
Точка росы
-11.0
Направление ветра
200
Скорость ветра (узлы)
10
Метео видимость
6.21
Явления погоды
Условия полета
VFR
Аэропорт подробнее: 

Найти трансфер

С помощью этой формы Вы можете найти трансфер из аэропорта Рощино в город, аэропорт или вокзал:

Карта места

Javascript is required to view this map.

Погода в аэропортах:

Авиационная погода в Нижнекамске

Регион: 
Погода METAR: 
UWKE 281300Z 23006G11MPS 5000 -SN BLSN BKN009 OVC026 M03/M04 Q1014 R21/450545 NOSIG RMK QFE744/0992
Время наблюдения
2021-11-28T13:00:00Z
Температура C
-3.0
Точка росы
-4.0
Направление ветра
230
Скорость ветра (узлы)
12
Метео видимость
3.11
Явления погоды
-SN BLSN
Условия полета
IFR
Аэропорт подробнее: 

Авиационная погода в аэропорту Байкал

Регион: 
Погода METAR: 
UIUU 281300Z 22002MPS 6000 2200NE FU NSC M14/M18 Q1027 R26/820550 NOSIG RMK QFE725/0967
Время наблюдения
2021-11-28T13:00:00Z
Температура C
-14.0
Точка росы
-18.0
Направление ветра
220
Скорость ветра (узлы)
4
Метео видимость
3.73
Явления погоды
FU
Условия полета
MVFR
Аэропорт подробнее: 

Авиационная погода в Киркенесе

Регион: 
Погода METAR: 
ENKR 281320Z 17012KT 9999 VCFG FEW001 SCT016 M21/M23 Q1010 RMK WIND 731FT 17018KT
Время наблюдения
2021-11-28T13:20:00Z
Температура C
-21.0
Точка росы
-23.0
Направление ветра
170
Скорость ветра (узлы)
12
Метео видимость
6.21
Явления погоды
VCFG
Условия полета
VFR

Авиационная погода в Вадсё

Регион: 
Погода METAR: 
ENVD 281020Z 20009KT 2500 BR VV003 M11/M12 Q1010 RMK ARCTIC SEAMOKE
Время наблюдения
2021-11-28T10:20:00Z
Температура C
-11.0
Точка росы
-12.0
Направление ветра
200
Скорость ветра (узлы)
9
Метео видимость
1.55
Явления погоды
BR
Условия полета
LIFR